createdAt,value
2019-01-28T00:01:41.758Z,0.77
2019-01-28T00:06:36.422Z,0.63
2019-01-28T00:11:30.983Z,1.70
2019-01-28T00:16:25.569Z,0.60
2019-01-28T00:21:20.155Z,0.60
2019-01-28T00:26:14.726Z,1.80
2019-01-28T00:31:09.381Z,0.40
2019-01-28T00:36:04.010Z,0.83
2019-01-28T00:40:58.592Z,0.63
2019-01-28T00:45:53.150Z,0.70
2019-01-28T00:50:47.827Z,0.90
2019-01-28T00:55:42.387Z,1.33
2019-01-28T01:00:37.114Z,1.50
2019-01-28T01:05:31.819Z,2.53
2019-01-28T01:10:26.418Z,1.73
2019-01-28T01:15:21.052Z,0.50
2019-01-28T01:20:17.862Z,0.80
2019-01-28T01:25:14.247Z,1.53
2019-01-28T01:30:15.705Z,1.00
2019-01-28T01:35:10.489Z,1.43
2019-01-28T01:40:09.099Z,0.83
2019-01-28T01:45:04.105Z,1.53
2019-01-28T01:49:58.704Z,0.63
2019-01-28T01:54:53.278Z,1.60
2019-01-28T01:59:47.861Z,2.27
2019-01-28T02:04:42.430Z,2.37
2019-01-28T02:09:37.118Z,0.90
2019-01-28T02:14:31.689Z,1.90
2019-01-28T02:19:26.268Z,1.90
2019-01-28T02:24:20.872Z,2.10
2019-01-28T02:29:15.454Z,1.47
2019-01-28T02:34:10.053Z,1.70
2019-01-28T02:39:07.540Z,2.10
2019-01-28T02:44:02.131Z,2.10
2019-01-28T02:48:56.710Z,1.30
2019-01-28T02:53:51.303Z,1.67
2019-01-28T02:58:45.873Z,1.97
2019-01-28T03:03:40.473Z,1.17
2019-01-28T03:08:35.037Z,2.73
2019-01-28T03:13:29.620Z,2.17
2019-01-28T03:18:24.187Z,2.07
2019-01-28T03:23:20.246Z,1.37
2019-01-28T03:28:14.826Z,2.53
2019-01-28T03:33:09.433Z,2.83
2019-01-28T03:38:04.068Z,3.20
2019-01-28T03:42:58.723Z,1.80
2019-01-28T03:47:53.287Z,2.73
2019-01-28T03:52:48.386Z,2.00
2019-01-28T03:57:43.258Z,0.90
2019-01-28T04:02:37.994Z,2.20
2019-01-28T04:07:32.572Z,2.43
2019-01-28T04:12:27.155Z,2.03
2019-01-28T04:17:21.740Z,3.83
2019-01-28T04:22:16.363Z,3.53
2019-01-28T04:27:10.950Z,3.60
2019-01-28T04:32:05.787Z,1.37
2019-01-28T04:37:00.371Z,2.17
2019-01-28T04:41:54.955Z,3.57
2019-01-28T04:46:49.561Z,2.07
2019-01-28T04:51:44.168Z,2.23
2019-01-28T04:56:38.820Z,2.87
2019-01-28T05:01:33.391Z,3.73
2019-01-28T05:06:27.972Z,3.47
2019-01-28T05:11:22.629Z,2.73
2019-01-28T05:16:17.204Z,3.97
2019-01-28T05:21:11.784Z,3.87
2019-01-28T05:26:06.448Z,2.53
2019-01-28T05:31:01.045Z,2.97
2019-01-28T05:35:55.701Z,3.97
2019-01-28T05:40:50.269Z,4.47
2019-01-28T05:45:44.841Z,3.33
2019-01-28T05:50:39.422Z,3.40
2019-01-28T05:55:34.085Z,3.47
2019-01-28T06:00:31.645Z,3.20
2019-01-28T06:05:26.299Z,2.63
2019-01-28T06:10:21.032Z,5.17
2019-01-28T06:15:18.758Z,2.03
2019-01-28T06:20:25.425Z,4.33
2019-01-28T06:25:20.269Z,4.53
2019-01-28T06:30:22.067Z,2.37
2019-01-28T06:35:16.845Z,4.57
2019-01-28T06:40:24.730Z,3.00
2019-01-28T06:45:19.551Z,2.97
2019-01-28T06:50:21.163Z,5.30
2019-01-28T06:55:16.070Z,4.00
2019-01-28T07:00:29.705Z,3.07
2019-01-28T07:05:24.434Z,4.43
2019-01-28T07:10:19.263Z,3.87
2019-01-28T07:15:18.651Z,3.43
2019-01-28T07:20:24.753Z,5.33
2019-01-28T07:25:20.036Z,5.53
2019-01-28T07:30:32.914Z,5.20
2019-01-28T07:35:27.699Z,5.93
2019-01-28T07:40:22.527Z,4.43
2019-01-28T07:45:21.941Z,3.40
2019-01-28T07:50:16.650Z,4.60
2019-01-28T07:55:13.343Z,4.07
2019-01-28T08:00:12.585Z,5.03
2019-01-28T08:05:12.554Z,3.27
2019-01-28T08:10:12.728Z,7.40
2019-01-28T08:15:15.739Z,4.63
2019-01-28T08:20:14.762Z,3.33
2019-01-28T08:25:13.839Z,4.37
2019-01-28T08:30:18.570Z,5.13
2019-01-28T08:35:14.293Z,8.47
2019-01-28T08:40:18.568Z,5.57
2019-01-28T08:45:14.423Z,6.40
2019-01-28T08:50:22.076Z,3.97
2019-01-28T08:55:20.377Z,9.73
2019-01-28T09:00:25.329Z,2.93
2019-01-28T09:05:22.382Z,7.93
2019-01-28T09:10:22.065Z,8.07
2019-01-28T09:15:22.927Z,4.20
2019-01-28T09:20:21.511Z,6.93
2019-01-28T09:25:17.608Z,9.70
2019-01-28T09:30:28.878Z,7.50
2019-01-28T09:35:23.774Z,8.93
2019-01-28T09:40:25.217Z,8.37
2019-01-28T09:45:27.142Z,4.37
2019-01-28T09:50:22.296Z,6.20
2019-01-28T09:55:18.488Z,8.67
2019-01-28T10:00:32.565Z,4.27
2019-01-28T10:05:27.386Z,9.17
2019-01-28T10:10:23.186Z,7.27
2019-01-28T10:15:28.495Z,5.90
2019-01-28T10:20:27.099Z,4.43
2019-01-28T10:25:23.998Z,7.90
2019-01-28T10:30:23.339Z,5.57
2019-01-28T10:35:18.718Z,8.63
2019-01-28T10:40:21.203Z,6.63
2019-01-28T10:45:22.215Z,8.53
2019-01-28T10:50:25.424Z,6.40
2019-01-28T10:55:27.612Z,9.50
2019-01-28T11:00:29.915Z,8.53
2019-01-28T11:05:29.016Z,6.03
2019-01-28T11:10:29.340Z,7.03
2019-01-28T11:15:27.905Z,10.77
2019-01-28T11:20:23.298Z,6.63
2019-01-28T11:25:22.094Z,7.20
2019-01-28T11:30:33.866Z,8.37
2019-01-28T11:35:28.889Z,7.33
2019-01-28T11:40:23.779Z,7.93
2019-01-28T11:45:32.220Z,9.33
2019-01-28T11:50:26.924Z,6.63
2019-01-28T11:55:21.562Z,4.57
2019-01-28T12:00:27.985Z,9.97
2019-01-28T12:05:22.724Z,4.07
2019-01-28T12:10:17.614Z,6.30
2019-01-28T12:15:21.115Z,6.53
2019-01-28T12:20:18.324Z,4.07
2019-01-28T12:25:16.008Z,8.80
2019-01-28T12:30:29.018Z,8.90
2019-01-28T12:35:24.072Z,8.47
2019-01-28T12:40:21.879Z,10.57
2019-01-28T12:45:26.576Z,7.00
2019-01-28T12:50:23.472Z,6.90
2019-01-28T12:55:22.510Z,8.83
2019-01-28T13:00:25.752Z,8.10
2019-01-28T13:05:23.986Z,7.03
2019-01-28T13:10:24.656Z,5.93
2019-01-28T13:15:29.568Z,9.57
2019-01-28T13:20:24.654Z,4.87
2019-01-28T13:25:26.498Z,7.67
2019-01-28T13:30:40.121Z,6.33
2019-01-28T13:35:34.692Z,8.57
2019-01-28T13:40:29.401Z,6.17
2019-01-28T13:45:28.491Z,5.97
2019-01-28T13:50:25.155Z,5.93
2019-01-28T13:55:21.836Z,4.93
2019-01-28T14:00:23.804Z,7.93
2019-01-28T14:05:18.570Z,4.20
2019-01-28T14:10:16.986Z,6.13
2019-01-28T14:15:16.171Z,9.83
2019-01-28T14:20:25.868Z,8.00
2019-01-28T14:25:20.691Z,5.47
2019-01-28T14:30:22.800Z,7.67
2019-01-28T14:35:17.607Z,8.33
2019-01-28T14:40:17.368Z,8.30
2019-01-28T14:45:13.358Z,4.60
2019-01-28T14:50:18.042Z,9.23
2019-01-28T14:55:12.828Z,7.07
2019-01-28T15:00:15.917Z,7.57
2019-01-28T15:05:12.666Z,4.80
2019-01-28T15:10:12.629Z,6.13
2019-01-28T15:15:12.610Z,6.30
2019-01-28T15:20:09.520Z,9.00
2019-01-28T15:25:05.547Z,4.03
2019-01-28T15:30:00.191Z,6.10
2019-01-28T15:34:54.857Z,3.83
2019-01-28T15:39:49.471Z,5.43
2019-01-28T15:44:44.144Z,10.27
2019-01-28T15:49:38.901Z,5.50
2019-01-28T15:54:34.097Z,4.33
2019-01-28T15:59:28.931Z,5.03
2019-01-28T16:04:23.912Z,4.33
2019-01-28T16:09:18.491Z,6.47
2019-01-28T16:14:13.082Z,3.17
2019-01-28T16:19:08.024Z,5.50
2019-01-28T16:24:03.219Z,4.47
2019-01-28T16:28:58.023Z,3.03
2019-01-28T16:33:52.657Z,5.27
2019-01-28T16:38:47.239Z,6.37
2019-01-28T16:43:41.909Z,6.73
2019-01-28T16:48:36.597Z,6.10
2019-01-28T16:53:31.238Z,7.33
2019-01-28T16:58:26.034Z,4.67
2019-01-28T17:03:20.766Z,9.53
2019-01-28T17:08:15.431Z,9.07
2019-01-28T17:13:11.079Z,6.30
2019-01-28T17:18:06.667Z,5.83
2019-01-28T17:23:01.260Z,6.57
2019-01-28T17:27:55.861Z,7.10
2019-01-28T17:32:50.536Z,5.47
2019-01-28T17:37:45.103Z,6.03
2019-01-28T17:42:39.711Z,4.60
2019-01-28T17:47:34.536Z,4.30
2019-01-28T17:52:29.135Z,5.37
2019-01-28T17:57:23.764Z,7.20
2019-01-28T18:02:18.380Z,4.37
2019-01-28T18:07:13.031Z,4.90
2019-01-28T18:12:07.634Z,5.07
2019-01-28T18:17:02.212Z,5.27
2019-01-28T18:21:56.793Z,5.83
2019-01-28T18:26:51.404Z,3.13
2019-01-28T18:31:45.983Z,4.00
2019-01-28T18:36:40.605Z,6.80
2019-01-28T18:41:35.214Z,2.70
2019-01-28T18:46:29.832Z,3.97
2019-01-28T18:51:24.475Z,3.20
2019-01-28T18:56:19.228Z,3.37
2019-01-28T19:01:13.946Z,5.20
2019-01-28T19:06:10.309Z,2.97
2019-01-28T19:11:14.686Z,3.30
2019-01-28T19:16:13.821Z,3.83
2019-01-28T19:21:10.043Z,3.53
2019-01-28T19:26:05.205Z,2.93
2019-01-28T19:30:59.804Z,3.13
2019-01-28T19:35:54.386Z,3.40
2019-01-28T19:40:49.033Z,4.07
2019-01-28T19:45:43.625Z,2.40
2019-01-28T19:50:38.212Z,6.50
2019-01-28T19:55:32.796Z,2.73
2019-01-28T20:00:27.767Z,3.20
2019-01-28T20:05:22.496Z,4.80
2019-01-28T20:10:17.229Z,2.97
2019-01-28T20:15:18.990Z,3.17
2019-01-28T20:20:17.977Z,3.13
2019-01-28T20:25:16.463Z,5.70
2019-01-28T20:30:18.141Z,3.07
2019-01-28T20:35:15.282Z,4.33
2019-01-28T20:40:14.107Z,3.70
2019-01-28T20:45:15.765Z,4.50
2019-01-28T20:50:23.441Z,2.50
2019-01-28T20:55:18.164Z,2.80
2019-01-28T21:00:17.109Z,3.53
2019-01-28T21:05:16.710Z,3.63
2019-01-28T21:10:16.009Z,2.93
2019-01-28T21:15:14.482Z,2.90
2019-01-28T21:20:13.719Z,4.73
2019-01-28T21:25:13.575Z,2.73
2019-01-28T21:30:27.658Z,2.87
2019-01-28T21:35:26.664Z,3.27
2019-01-28T21:40:21.255Z,4.10
2019-01-28T21:45:16.727Z,2.70
2019-01-28T21:50:12.884Z,4.37
2019-01-28T21:55:09.382Z,4.50
2019-01-28T22:00:05.574Z,4.23
2019-01-28T22:05:00.268Z,4.43
2019-01-28T22:09:54.803Z,4.17
2019-01-28T22:14:49.396Z,4.60
2019-01-28T22:19:44.049Z,3.97
2019-01-28T22:24:38.671Z,3.03
2019-01-28T22:29:33.246Z,4.07
2019-01-28T22:34:27.909Z,3.17
2019-01-28T22:39:22.486Z,5.23
2019-01-28T22:44:17.075Z,3.67
2019-01-28T22:49:11.669Z,4.63
2019-01-28T22:54:06.557Z,4.60
2019-01-28T22:59:01.191Z,5.43
2019-01-28T23:03:55.838Z,4.53
2019-01-28T23:08:50.414Z,3.83
2019-01-28T23:13:44.992Z,5.93
2019-01-28T23:18:39.594Z,4.83
2019-01-28T23:23:34.182Z,3.93
2019-01-28T23:28:28.762Z,4.00
2019-01-28T23:33:23.412Z,4.23
2019-01-28T23:38:18.008Z,4.83
2019-01-28T23:43:12.671Z,5.43
2019-01-28T23:48:07.279Z,3.60
2019-01-28T23:53:01.860Z,5.83
2019-01-28T23:57:57.148Z,4.33
